sensor_id;sensor_type;location;lat;lon;timestamp;P1;durP1;ratioP1;P2;durP2;ratioP2
35364;SDS011;21464;48.112;11.530;2023-01-15T00:01:46;1.50;;;1.20;;
35364;SDS011;21464;48.112;11.530;2023-01-15T00:04:13;1.23;;;1.13;;
35364;SDS011;21464;48.112;11.530;2023-01-15T00:06:40;1.10;;;1.00;;
35364;SDS011;21464;48.112;11.530;2023-01-15T00:09:07;1.00;;;1.00;;
35364;SDS011;21464;48.112;11.530;2023-01-15T00:11:38;1.30;;;1.17;;
35364;SDS011;21464;48.112;11.530;2023-01-15T00:14:05;1.47;;;1.40;;
35364;SDS011;21464;48.112;11.530;2023-01-15T00:16:31;1.00;;;1.00;;
35364;SDS011;21464;48.112;11.530;2023-01-15T00:18:58;1.10;;;1.00;;
35364;SDS011;21464;48.112;11.530;2023-01-15T00:21:26;1.20;;;1.10;;
35364;SDS011;21464;48.112;11.530;2023-01-15T00:23:53;0.97;;;0.97;;
35364;SDS011;21464;48.112;11.530;2023-01-15T00:26:39;6.30;;;3.53;;
35364;SDS011;21464;48.112;11.530;2023-01-15T00:29:24;8.07;;;5.17;;
35364;SDS011;21464;48.112;11.530;2023-01-15T00:31:58;5.03;;;2.80;;
35364;SDS011;21464;48.112;11.530;2023-01-15T00:34:27;1.67;;;1.53;;
35364;SDS011;21464;48.112;11.530;2023-01-15T00:36:56;3.67;;;2.57;;
35364;SDS011;21464;48.112;11.530;2023-01-15T00:39:22;2.37;;;1.80;;
35364;SDS011;21464;48.112;11.530;2023-01-15T00:41:52;2.10;;;1.80;;
35364;SDS011;21464;48.112;11.530;2023-01-15T00:44:18;1.40;;;1.30;;
35364;SDS011;21464;48.112;11.530;2023-01-15T00:46:45;1.20;;;1.10;;
35364;SDS011;21464;48.112;11.530;2023-01-15T00:49:12;2.80;;;2.00;;
35364;SDS011;21464;48.112;11.530;2023-01-15T00:51:38;1.50;;;1.40;;
35364;SDS011;21464;48.112;11.530;2023-01-15T00:54:04;1.20;;;1.10;;
35364;SDS011;21464;48.112;11.530;2023-01-15T00:56:31;2.93;;;2.37;;
35364;SDS011;21464;48.112;11.530;2023-01-15T00:58:57;1.50;;;1.40;;
35364;SDS011;21464;48.112;11.530;2023-01-15T01:01:26;1.47;;;1.37;;
35364;SDS011;21464;48.112;11.530;2023-01-15T01:03:52;1.10;;;1.10;;
35364;SDS011;21464;48.112;11.530;2023-01-15T01:06:22;1.00;;;1.00;;
35364;SDS011;21464;48.112;11.530;2023-01-15T01:08:49;1.30;;;1.20;;
35364;SDS011;21464;48.112;11.530;2023-01-15T01:11:16;1.30;;;1.20;;
35364;SDS011;21464;48.112;11.530;2023-01-15T01:13:44;1.30;;;1.13;;
35364;SDS011;21464;48.112;11.530;2023-01-15T01:16:21;0.93;;;0.90;;
35364;SDS011;21464;48.112;11.530;2023-01-15T01:18:49;1.73;;;1.37;;
35364;SDS011;21464;48.112;11.530;2023-01-15T01:21:16;2.00;;;1.53;;
35364;SDS011;21464;48.112;11.530;2023-01-15T01:23:42;1.97;;;1.43;;
35364;SDS011;21464;48.112;11.530;2023-01-15T01:26:09;1.30;;;1.10;;
35364;SDS011;21464;48.112;11.530;2023-01-15T01:28:35;1.20;;;1.10;;
35364;SDS011;21464;48.112;11.530;2023-01-15T01:31:05;1.20;;;0.97;;
35364;SDS011;21464;48.112;11.530;2023-01-15T01:33:31;1.00;;;1.00;;
35364;SDS011;21464;48.112;11.530;2023-01-15T01:35:58;1.27;;;1.00;;
35364;SDS011;21464;48.112;11.530;2023-01-15T01:38:24;1.83;;;1.10;;
35364;SDS011;21464;48.112;11.530;2023-01-15T01:40:50;3.40;;;2.40;;
35364;SDS011;21464;48.112;11.530;2023-01-15T01:43:18;2.47;;;1.70;;
35364;SDS011;21464;48.112;11.530;2023-01-15T01:45:46;2.90;;;2.13;;
35364;SDS011;21464;48.112;11.530;2023-01-15T01:48:12;10.80;;;6.40;;
35364;SDS011;21464;48.112;11.530;2023-01-15T01:50:40;3.57;;;2.40;;
35364;SDS011;21464;48.112;11.530;2023-01-15T01:53:08;2.80;;;1.80;;
35364;SDS011;21464;48.112;11.530;2023-01-15T01:55:46;1.90;;;1.73;;
35364;SDS011;21464;48.112;11.530;2023-01-15T01:58:15;4.60;;;2.37;;
35364;SDS011;21464;48.112;11.530;2023-01-15T02:00:43;3.80;;;2.73;;
35364;SDS011;21464;48.112;11.530;2023-01-15T02:03:11;2.33;;;1.63;;
35364;SDS011;21464;48.112;11.530;2023-01-15T02:05:42;4.20;;;3.10;;
35364;SDS011;21464;48.112;11.530;2023-01-15T02:08:11;1.43;;;1.33;;
35364;SDS011;21464;48.112;11.530;2023-01-15T02:10:38;1.37;;;1.27;;
35364;SDS011;21464;48.112;11.530;2023-01-15T02:13:25;4.43;;;2.73;;
35364;SDS011;21464;48.112;11.530;2023-01-15T02:24:36;1.40;;;1.30;;
35364;SDS011;21464;48.112;11.530;2023-01-15T02:27:17;1.43;;;1.33;;
35364;SDS011;21464;48.112;11.530;2023-01-15T02:29:52;1.50;;;1.40;;
35364;SDS011;21464;48.112;11.530;2023-01-15T02:32:25;1.20;;;1.20;;
35364;SDS011;21464;48.112;11.530;2023-01-15T02:34:55;2.20;;;1.90;;
35364;SDS011;21464;48.112;11.530;2023-01-15T02:37:25;1.43;;;1.33;;
35364;SDS011;21464;48.112;11.530;2023-01-15T02:39:54;2.27;;;1.30;;
35364;SDS011;21464;48.112;11.530;2023-01-15T02:42:23;0.90;;;0.90;;
35364;SDS011;21464;48.112;11.530;2023-01-15T02:44:52;1.20;;;0.83;;
35364;SDS011;21464;48.112;11.530;2023-01-15T02:47:21;1.03;;;1.03;;
35364;SDS011;21464;48.112;11.530;2023-01-15T02:49:51;1.07;;;1.00;;
35364;SDS011;21464;48.112;11.530;2023-01-15T02:52:23;1.13;;;1.00;;
35364;SDS011;21464;48.112;11.530;2023-01-15T02:54:57;0.90;;;0.90;;
35364;SDS011;21464;48.112;11.530;2023-01-15T02:57:27;0.80;;;0.80;;
35364;SDS011;21464;48.112;11.530;2023-01-15T02:59:57;1.50;;;1.03;;
35364;SDS011;21464;48.112;11.530;2023-01-15T03:02:28;1.00;;;1.00;;
35364;SDS011;21464;48.112;11.530;2023-01-15T03:05:05;1.30;;;1.00;;
35364;SDS011;21464;48.112;11.530;2023-01-15T03:07:36;0.80;;;0.80;;
35364;SDS011;21464;48.112;11.530;2023-01-15T03:10:08;0.90;;;0.90;;
35364;SDS011;21464;48.112;11.530;2023-01-15T03:16:08;0.90;;;0.77;;
35364;SDS011;21464;48.112;11.530;2023-01-15T03:21:49;0.80;;;0.80;;
35364;SDS011;21464;48.112;11.530;2023-01-15T03:26:59;0.80;;;0.80;;
35364;SDS011;21464;48.112;11.530;2023-01-15T03:29:27;2.03;;;1.20;;
35364;SDS011;21464;48.112;11.530;2023-01-15T03:31:57;1.17;;;0.73;;
35364;SDS011;21464;48.112;11.530;2023-01-15T03:34:25;0.83;;;0.83;;
35364;SDS011;21464;48.112;11.530;2023-01-15T03:36:55;0.70;;;0.70;;
35364;SDS011;21464;48.112;11.530;2023-01-15T03:39:22;0.70;;;0.70;;
35364;SDS011;21464;48.112;11.530;2023-01-15T03:50:39;1.13;;;0.80;;
35364;SDS011;21464;48.112;11.530;2023-01-15T03:53:10;0.73;;;0.73;;
35364;SDS011;21464;48.112;11.530;2023-01-15T03:56:03;0.63;;;0.63;;
35364;SDS011;21464;48.112;11.530;2023-01-15T03:58:43;0.60;;;0.60;;
35364;SDS011;21464;48.112;11.530;2023-01-15T04:01:14;0.70;;;0.70;;
35364;SDS011;21464;48.112;11.530;2023-01-15T04:03:43;0.60;;;0.60;;
35364;SDS011;21464;48.112;11.530;2023-01-15T04:06:11;0.70;;;0.70;;
35364;SDS011;21464;48.112;11.530;2023-01-15T04:08:38;0.60;;;0.60;;
35364;SDS011;21464;48.112;11.530;2023-01-15T04:11:06;0.87;;;0.73;;
35364;SDS011;21464;48.112;11.530;2023-01-15T04:13:39;0.70;;;0.70;;
35364;SDS011;21464;48.112;11.530;2023-01-15T04:16:09;0.70;;;0.70;;
35364;SDS011;21464;48.112;11.530;2023-01-15T04:18:35;0.80;;;0.80;;
35364;SDS011;21464;48.112;11.530;2023-01-15T04:21:01;0.83;;;0.70;;
35364;SDS011;21464;48.112;11.530;2023-01-15T04:23:30;0.70;;;0.70;;
35364;SDS011;21464;48.112;11.530;2023-01-15T04:25:57;0.53;;;0.53;;
35364;SDS011;21464;48.112;11.530;2023-01-15T04:28:23;0.70;;;0.70;;
35364;SDS011;21464;48.112;11.530;2023-01-15T04:30:49;0.80;;;0.80;;
35364;SDS011;21464;48.112;11.530;2023-01-15T04:33:15;0.70;;;0.70;;
35364;SDS011;21464;48.112;11.530;2023-01-15T04:35:42;0.90;;;0.90;;
35364;SDS011;21464;48.112;11.530;2023-01-15T04:38:09;1.90;;;1.70;;
35364;SDS011;21464;48.112;11.530;2023-01-15T04:40:35;0.90;;;0.90;;
35364;SDS011;21464;48.112;11.530;2023-01-15T04:43:20;2.10;;;0.90;;
35364;SDS011;21464;48.112;11.530;2023-01-15T04:46:05;0.70;;;0.70;;
35364;SDS011;21464;48.112;11.530;2023-01-15T04:48:31;1.80;;;0.90;;
35364;SDS011;21464;48.112;11.530;2023-01-15T04:51:00;0.70;;;0.70;;
35364;SDS011;21464;48.112;11.530;2023-01-15T04:53:28;0.70;;;0.70;;
35364;SDS011;21464;48.112;11.530;2023-01-15T04:55:58;1.03;;;0.80;;
35364;SDS011;21464;48.112;11.530;2023-01-15T04:58:28;1.13;;;0.90;;
35364;SDS011;21464;48.112;11.530;2023-01-15T05:00:55;0.60;;;0.60;;
35364;SDS011;21464;48.112;11.530;2023-01-15T05:03:21;0.90;;;0.90;;
35364;SDS011;21464;48.112;11.530;2023-01-15T05:05:48;1.13;;;0.90;;
35364;SDS011;21464;48.112;11.530;2023-01-15T05:08:15;0.73;;;0.73;;
35364;SDS011;21464;48.112;11.530;2023-01-15T05:10:41;0.70;;;0.70;;
35364;SDS011;21464;48.112;11.530;2023-01-15T05:13:07;1.40;;;0.80;;
35364;SDS011;21464;48.112;11.530;2023-01-15T05:15:34;0.90;;;0.90;;
35364;SDS011;21464;48.112;11.530;2023-01-15T05:18:00;1.00;;;0.90;;
35364;SDS011;21464;48.112;11.530;2023-01-15T05:20:26;1.17;;;1.00;;
35364;SDS011;21464;48.112;11.530;2023-01-15T05:22:52;0.90;;;0.90;;
35364;SDS011;21464;48.112;11.530;2023-01-15T05:25:19;0.70;;;0.70;;
35364;SDS011;21464;48.112;11.530;2023-01-15T05:27:45;0.73;;;0.73;;
35364;SDS011;21464;48.112;11.530;2023-01-15T05:30:11;0.70;;;0.70;;
35364;SDS011;21464;48.112;11.530;2023-01-15T05:32:39;0.60;;;0.60;;
35364;SDS011;21464;48.112;11.530;2023-01-15T05:35:05;0.50;;;0.50;;
35364;SDS011;21464;48.112;11.530;2023-01-15T05:37:32;0.70;;;0.70;;
35364;SDS011;21464;48.112;11.530;2023-01-15T05:39:58;0.60;;;0.60;;
35364;SDS011;21464;48.112;11.530;2023-01-15T05:42:24;0.40;;;0.40;;
35364;SDS011;21464;48.112;11.530;2023-01-15T05:44:50;0.40;;;0.40;;
35364;SDS011;21464;48.112;11.530;2023-01-15T05:47:17;0.50;;;0.50;;
35364;SDS011;21464;48.112;11.530;2023-01-15T05:49:43;0.40;;;0.40;;
35364;SDS011;21464;48.112;11.530;2023-01-15T05:52:09;0.50;;;0.50;;
35364;SDS011;21464;48.112;11.530;2023-01-15T05:54:36;0.50;;;0.27;;
35364;SDS011;21464;48.112;11.530;2023-01-15T05:57:02;0.20;;;0.20;;
35364;SDS011;21464;48.112;11.530;2023-01-15T05:59:29;0.30;;;0.30;;
35364;SDS011;21464;48.112;11.530;2023-01-15T06:01:56;0.40;;;0.40;;
35364;SDS011;21464;48.112;11.530;2023-01-15T06:04:22;0.30;;;0.30;;
35364;SDS011;21464;48.112;11.530;2023-01-15T06:06:50;0.30;;;0.30;;
35364;SDS011;21464;48.112;11.530;2023-01-15T06:09:18;0.32;;;0.32;;
35364;SDS011;21464;48.112;11.530;2023-01-15T06:11:44;0.30;;;0.30;;
35364;SDS011;21464;48.112;11.530;2023-01-15T06:14:11;0.40;;;0.40;;
35364;SDS011;21464;48.112;11.530;2023-01-15T06:16:38;0.40;;;0.40;;
35364;SDS011;21464;48.112;11.530;2023-01-15T06:19:05;0.87;;;0.30;;
35364;SDS011;21464;48.112;11.530;2023-01-15T06:21:32;0.30;;;0.30;;
35364;SDS011;21464;48.112;11.530;2023-01-15T06:24:00;0.40;;;0.40;;
35364;SDS011;21464;48.112;11.530;2023-01-15T06:26:26;0.35;;;0.35;;
35364;SDS011;21464;48.112;11.530;2023-01-15T06:28:53;0.77;;;0.30;;
35364;SDS011;21464;48.112;11.530;2023-01-15T06:31:20;0.40;;;0.40;;
35364;SDS011;21464;48.112;11.530;2023-01-15T06:33:47;0.40;;;0.40;;
35364;SDS011;21464;48.112;11.530;2023-01-15T06:36:14;0.35;;;0.35;;
35364;SDS011;21464;48.112;11.530;2023-01-15T06:38:44;0.30;;;0.30;;
35364;SDS011;21464;48.112;11.530;2023-01-15T06:41:14;0.30;;;0.30;;
35364;SDS011;21464;48.112;11.530;2023-01-15T06:44:03;0.35;;;0.35;;
35364;SDS011;21464;48.112;11.530;2023-01-15T06:46:48;0.30;;;0.30;;
35364;SDS011;21464;48.112;11.530;2023-01-15T06:49:34;0.30;;;0.30;;
35364;SDS011;21464;48.112;11.530;2023-01-15T06:52:02;0.40;;;0.40;;
35364;SDS011;21464;48.112;11.530;2023-01-15T06:54:29;0.38;;;0.30;;
35364;SDS011;21464;48.112;11.530;2023-01-15T06:56:55;0.22;;;0.22;;
35364;SDS011;21464;48.112;11.530;2023-01-15T06:59:21;0.25;;;0.22;;
35364;SDS011;21464;48.112;11.530;2023-01-15T07:01:48;0.30;;;0.30;;
35364;SDS011;21464;48.112;11.530;2023-01-15T07:04:14;0.30;;;0.30;;
35364;SDS011;21464;48.112;11.530;2023-01-15T07:06:40;0.30;;;0.30;;
35364;SDS011;21464;48.112;11.530;2023-01-15T07:09:07;0.22;;;0.22;;
35364;SDS011;21464;48.112;11.530;2023-01-15T07:11:33;0.20;;;0.20;;
35364;SDS011;21464;48.112;11.530;2023-01-15T07:13:59;0.30;;;0.30;;
35364;SDS011;21464;48.112;11.530;2023-01-15T07:16:32;0.30;;;0.30;;
35364;SDS011;21464;48.112;11.530;2023-01-15T07:18:59;0.20;;;0.20;;
35364;SDS011;21464;48.112;11.530;2023-01-15T07:21:26;0.30;;;0.30;;
35364;SDS011;21464;48.112;11.530;2023-01-15T07:23:52;0.30;;;0.30;;
35364;SDS011;21464;48.112;11.530;2023-01-15T07:26:19;0.30;;;0.30;;
35364;SDS011;21464;48.112;11.530;2023-01-15T07:28:45;0.20;;;0.20;;
35364;SDS011;21464;48.112;11.530;2023-01-15T07:31:12;0.30;;;0.30;;
35364;SDS011;21464;48.112;11.530;2023-01-15T07:33:38;0.20;;;0.20;;
35364;SDS011;21464;48.112;11.530;2023-01-15T07:36:04;0.20;;;0.20;;
35364;SDS011;21464;48.112;11.530;2023-01-15T07:38:30;0.30;;;0.30;;
35364;SDS011;21464;48.112;11.530;2023-01-15T07:40:57;0.40;;;0.40;;
35364;SDS011;21464;48.112;11.530;2023-01-15T07:43:43;0.30;;;0.30;;
35364;SDS011;21464;48.112;11.530;2023-01-15T07:46:28;0.20;;;0.20;;
35364;SDS011;21464;48.112;11.530;2023-01-15T07:49:13;0.50;;;0.30;;
35364;SDS011;21464;48.112;11.530;2023-01-15T07:51:58;0.30;;;0.30;;
35364;SDS011;21464;48.112;11.530;2023-01-15T07:54:24;0.30;;;0.30;;
35364;SDS011;21464;48.112;11.530;2023-01-15T07:56:52;1.10;;;0.30;;
35364;SDS011;21464;48.112;11.530;2023-01-15T07:59:18;0.30;;;0.30;;
35364;SDS011;21464;48.112;11.530;2023-01-15T08:01:45;0.45;;;0.45;;
35364;SDS011;21464;48.112;11.530;2023-01-15T08:04:11;0.40;;;0.40;;
35364;SDS011;21464;48.112;11.530;2023-01-15T08:06:37;0.47;;;0.47;;
35364;SDS011;21464;48.112;11.530;2023-01-15T08:09:03;0.25;;;0.25;;
35364;SDS011;21464;48.112;11.530;2023-01-15T08:11:31;0.40;;;0.40;;
35364;SDS011;21464;48.112;11.530;2023-01-15T08:14:17;0.30;;;0.30;;
35364;SDS011;21464;48.112;11.530;2023-01-15T08:17:06;0.50;;;0.50;;
35364;SDS011;21464;48.112;11.530;2023-01-15T08:19:33;0.35;;;0.35;;
35364;SDS011;21464;48.112;11.530;2023-01-15T08:21:59;0.20;;;0.20;;
35364;SDS011;21464;48.112;11.530;2023-01-15T08:24:26;0.30;;;0.30;;
35364;SDS011;21464;48.112;11.530;2023-01-15T08:26:53;0.30;;;0.30;;
35364;SDS011;21464;48.112;11.530;2023-01-15T08:29:20;0.43;;;0.43;;
35364;SDS011;21464;48.112;11.530;2023-01-15T08:31:46;0.50;;;0.30;;
35364;SDS011;21464;48.112;11.530;2023-01-15T08:34:13;0.45;;;0.45;;
35364;SDS011;21464;48.112;11.530;2023-01-15T08:36:39;0.35;;;0.35;;
35364;SDS011;21464;48.112;11.530;2023-01-15T08:39:05;0.20;;;0.20;;
35364;SDS011;21464;48.112;11.530;2023-01-15T08:41:31;0.30;;;0.30;;
35364;SDS011;21464;48.112;11.530;2023-01-15T08:43:58;0.30;;;0.30;;
35364;SDS011;21464;48.112;11.530;2023-01-15T08:46:24;0.32;;;0.32;;
35364;SDS011;21464;48.112;11.530;2023-01-15T08:48:51;0.40;;;0.40;;
35364;SDS011;21464;48.112;11.530;2023-01-15T08:51:18;0.30;;;0.30;;
35364;SDS011;21464;48.112;11.530;2023-01-15T08:53:44;0.70;;;0.70;;
35364;SDS011;21464;48.112;11.530;2023-01-15T08:56:11;0.30;;;0.30;;
35364;SDS011;21464;48.112;11.530;2023-01-15T08:58:38;0.50;;;0.47;;
35364;SDS011;21464;48.112;11.530;2023-01-15T09:01:05;0.43;;;0.43;;
35364;SDS011;21464;48.112;11.530;2023-01-15T09:03:32;0.38;;;0.38;;
35364;SDS011;21464;48.112;11.530;2023-01-15T09:05:59;0.38;;;0.38;;
35364;SDS011;21464;48.112;11.530;2023-01-15T09:08:26;0.40;;;0.40;;
35364;SDS011;21464;48.112;11.530;2023-01-15T09:10:59;0.50;;;0.50;;
35364;SDS011;21464;48.112;11.530;2023-01-15T09:13:27;0.43;;;0.40;;
35364;SDS011;21464;48.112;11.530;2023-01-15T09:15:57;0.45;;;0.45;;
35364;SDS011;21464;48.112;11.530;2023-01-15T09:18:24;0.63;;;0.63;;
35364;SDS011;21464;48.112;11.530;2023-01-15T09:20:51;0.30;;;0.30;;
35364;SDS011;21464;48.112;11.530;2023-01-15T09:23:17;0.30;;;0.30;;
35364;SDS011;21464;48.112;11.530;2023-01-15T09:25:53;0.22;;;0.22;;
35364;SDS011;21464;48.112;11.530;2023-01-15T09:28:20;0.30;;;0.30;;
35364;SDS011;21464;48.112;11.530;2023-01-15T09:30:47;0.40;;;0.40;;
35364;SDS011;21464;48.112;11.530;2023-01-15T09:33:14;0.52;;;0.30;;
35364;SDS011;21464;48.112;11.530;2023-01-15T09:35:41;0.80;;;0.43;;
35364;SDS011;21464;48.112;11.530;2023-01-15T09:38:10;0.43;;;0.43;;
35364;SDS011;21464;48.112;11.530;2023-01-15T09:43:20;0.57;;;0.45;;
35364;SDS011;21464;48.112;11.530;2023-01-15T09:46:17;0.60;;;0.60;;
35364;SDS011;21464;48.112;11.530;2023-01-15T09:49:07;0.40;;;0.40;;
35364;SDS011;21464;48.112;11.530;2023-01-15T09:52:31;0.60;;;0.60;;
35364;SDS011;21464;48.112;11.530;2023-01-15T09:57:37;0.30;;;0.30;;
35364;SDS011;21464;48.112;11.530;2023-01-15T10:00:04;0.50;;;0.50;;
35364;SDS011;21464;48.112;11.530;2023-01-15T10:02:49;0.52;;;0.52;;
35364;SDS011;21464;48.112;11.530;2023-01-15T10:05:25;0.45;;;0.45;;
35364;SDS011;21464;48.112;11.530;2023-01-15T10:07:57;0.60;;;0.60;;
35364;SDS011;21464;48.112;11.530;2023-01-15T10:10:29;0.95;;;0.73;;
35364;SDS011;21464;48.112;11.530;2023-01-15T10:13:01;0.60;;;0.60;;
35364;SDS011;21464;48.112;11.530;2023-01-15T10:15:41;0.60;;;0.60;;
35364;SDS011;21464;48.112;11.530;2023-01-15T10:18:14;0.40;;;0.40;;
35364;SDS011;21464;48.112;11.530;2023-01-15T10:25:48;0.40;;;0.40;;
35364;SDS011;21464;48.112;11.530;2023-01-15T10:28:29;0.63;;;0.40;;
35364;SDS011;21464;48.112;11.530;2023-01-15T10:31:06;0.50;;;0.50;;
35364;SDS011;21464;48.112;11.530;2023-01-15T10:36:17;0.50;;;0.50;;
35364;SDS011;21464;48.112;11.530;2023-01-15T10:38:48;0.30;;;0.30;;
35364;SDS011;21464;48.112;11.530;2023-01-15T10:41:27;0.30;;;0.30;;
35364;SDS011;21464;48.112;11.530;2023-01-15T10:46:28;0.50;;;0.50;;
35364;SDS011;21464;48.112;11.530;2023-01-15T10:49:04;0.40;;;0.40;;
35364;SDS011;21464;48.112;11.530;2023-01-15T10:51:36;0.50;;;0.50;;
35364;SDS011;21464;48.112;11.530;2023-01-15T10:54:55;0.60;;;0.60;;
35364;SDS011;21464;48.112;11.530;2023-01-15T10:59:47;0.63;;;0.63;;
35364;SDS011;21464;48.112;11.530;2023-01-15T11:04:59;0.50;;;0.50;;
35364;SDS011;21464;48.112;11.530;2023-01-15T11:07:43;1.13;;;0.60;;
35364;SDS011;21464;48.112;11.530;2023-01-15T11:10:12;0.50;;;0.50;;
35364;SDS011;21464;48.112;11.530;2023-01-15T11:12:44;0.60;;;0.60;;
35364;SDS011;21464;48.112;11.530;2023-01-15T11:15:43;0.40;;;0.40;;
35364;SDS011;21464;48.112;11.530;2023-01-15T11:18:32;0.43;;;0.43;;
35364;SDS011;21464;48.112;11.530;2023-01-15T11:21:19;0.60;;;0.60;;
35364;SDS011;21464;48.112;11.530;2023-01-15T11:23:47;0.50;;;0.50;;
35364;SDS011;21464;48.112;11.530;2023-01-15T11:26:19;0.60;;;0.60;;
35364;SDS011;21464;48.112;11.530;2023-01-15T11:28:47;0.53;;;0.53;;
35364;SDS011;21464;48.112;11.530;2023-01-15T11:31:14;0.47;;;0.47;;
35364;SDS011;21464;48.112;11.530;2023-01-15T11:33:55;0.60;;;0.60;;
35364;SDS011;21464;48.112;11.530;2023-01-15T11:36:25;0.60;;;0.60;;
35364;SDS011;21464;48.112;11.530;2023-01-15T11:38:53;0.50;;;0.50;;
35364;SDS011;21464;48.112;11.530;2023-01-15T11:41:22;0.70;;;0.70;;
35364;SDS011;21464;48.112;11.530;2023-01-15T11:43:55;0.57;;;0.57;;
35364;SDS011;21464;48.112;11.530;2023-01-15T11:46:41;0.93;;;0.90;;
35364;SDS011;21464;48.112;11.530;2023-01-15T11:49:29;1.80;;;1.10;;
35364;SDS011;21464;48.112;11.530;2023-01-15T11:52:21;0.63;;;0.63;;
35364;SDS011;21464;48.112;11.530;2023-01-15T11:54:49;0.50;;;0.50;;
35364;SDS011;21464;48.112;11.530;2023-01-15T11:57:27;0.70;;;0.70;;
35364;SDS011;21464;48.112;11.530;2023-01-15T11:59:56;0.70;;;0.70;;
35364;SDS011;21464;48.112;11.530;2023-01-15T12:02:28;0.60;;;0.60;;
35364;SDS011;21464;48.112;11.530;2023-01-15T12:04:58;0.70;;;0.70;;
35364;SDS011;21464;48.112;11.530;2023-01-15T12:07:25;1.10;;;1.10;;
35364;SDS011;21464;48.112;11.530;2023-01-15T12:10:00;0.70;;;0.70;;
35364;SDS011;21464;48.112;11.530;2023-01-15T12:26:25;0.90;;;0.90;;
35364;SDS011;21464;48.112;11.530;2023-01-15T12:29:08;0.97;;;0.97;;
35364;SDS011;21464;48.112;11.530;2023-01-15T12:34:38;0.77;;;0.77;;
35364;SDS011;21464;48.112;11.530;2023-01-15T12:37:10;0.70;;;0.70;;
35364;SDS011;21464;48.112;11.530;2023-01-15T12:39:47;0.70;;;0.70;;
35364;SDS011;21464;48.112;11.530;2023-01-15T12:42:25;0.70;;;0.70;;
35364;SDS011;21464;48.112;11.530;2023-01-15T12:45:15;0.67;;;0.67;;
35364;SDS011;21464;48.112;11.530;2023-01-15T12:47:48;1.10;;;1.00;;
35364;SDS011;21464;48.112;11.530;2023-01-15T12:50:38;1.37;;;0.77;;
35364;SDS011;21464;48.112;11.530;2023-01-15T12:55:39;0.80;;;0.80;;
35364;SDS011;21464;48.112;11.530;2023-01-15T12:58:12;1.00;;;1.00;;
35364;SDS011;21464;48.112;11.530;2023-01-15T13:00:45;0.77;;;0.77;;
35364;SDS011;21464;48.112;11.530;2023-01-15T13:03:20;0.80;;;0.80;;
35364;SDS011;21464;48.112;11.530;2023-01-15T13:06:03;0.70;;;0.70;;
35364;SDS011;21464;48.112;11.530;2023-01-15T13:11:12;0.90;;;0.90;;
35364;SDS011;21464;48.112;11.530;2023-01-15T13:13:39;1.93;;;1.00;;
35364;SDS011;21464;48.112;11.530;2023-01-15T13:16:12;1.20;;;0.80;;
35364;SDS011;21464;48.112;11.530;2023-01-15T13:18:54;2.07;;;1.00;;
35364;SDS011;21464;48.112;11.530;2023-01-15T13:21:22;1.10;;;0.80;;
35364;SDS011;21464;48.112;11.530;2023-01-15T13:32:28;0.77;;;0.77;;
35364;SDS011;21464;48.112;11.530;2023-01-15T13:38:00;0.90;;;0.80;;
35364;SDS011;21464;48.112;11.530;2023-01-15T13:40:38;0.50;;;0.50;;
35364;SDS011;21464;48.112;11.530;2023-01-15T13:43:34;0.60;;;0.60;;
35364;SDS011;21464;48.112;11.530;2023-01-15T13:46:09;0.50;;;0.50;;
35364;SDS011;21464;48.112;11.530;2023-01-15T13:48:42;0.50;;;0.50;;
35364;SDS011;21464;48.112;11.530;2023-01-15T13:51:21;0.60;;;0.60;;
35364;SDS011;21464;48.112;11.530;2023-01-15T13:53:53;0.70;;;0.70;;
35364;SDS011;21464;48.112;11.530;2023-01-15T13:56:28;0.80;;;0.80;;
35364;SDS011;21464;48.112;11.530;2023-01-15T13:59:00;0.67;;;0.67;;
35364;SDS011;21464;48.112;11.530;2023-01-15T14:06:34;0.70;;;0.70;;
35364;SDS011;21464;48.112;11.530;2023-01-15T14:17:32;0.77;;;0.70;;
35364;SDS011;21464;48.112;11.530;2023-01-15T14:31:31;0.70;;;0.70;;
35364;SDS011;21464;48.112;11.530;2023-01-15T14:34:21;0.47;;;0.47;;
35364;SDS011;21464;48.112;11.530;2023-01-15T14:36:50;0.30;;;0.30;;
35364;SDS011;21464;48.112;11.530;2023-01-15T14:41:57;0.50;;;0.50;;
35364;SDS011;21464;48.112;11.530;2023-01-15T14:44:45;0.83;;;0.83;;
35364;SDS011;21464;48.112;11.530;2023-01-15T14:47:18;0.70;;;0.70;;
35364;SDS011;21464;48.112;11.530;2023-01-15T14:49:59;0.90;;;0.70;;
35364;SDS011;21464;48.112;11.530;2023-01-15T14:52:45;0.60;;;0.60;;
35364;SDS011;21464;48.112;11.530;2023-01-15T14:55:12;0.50;;;0.50;;
35364;SDS011;21464;48.112;11.530;2023-01-15T14:57:40;0.63;;;0.63;;
35364;SDS011;21464;48.112;11.530;2023-01-15T15:00:10;0.40;;;0.40;;
35364;SDS011;21464;48.112;11.530;2023-01-15T15:02:41;1.00;;;0.97;;
35364;SDS011;21464;48.112;11.530;2023-01-15T15:05:12;0.83;;;0.83;;
35364;SDS011;21464;48.112;11.530;2023-01-15T15:07:41;0.70;;;0.70;;
35364;SDS011;21464;48.112;11.530;2023-01-15T15:18:32;0.73;;;0.73;;
35364;SDS011;21464;48.112;11.530;2023-01-15T15:23:44;1.17;;;0.90;;
35364;SDS011;21464;48.112;11.530;2023-01-15T15:26:17;1.20;;;1.07;;
35364;SDS011;21464;48.112;11.530;2023-01-15T15:31:33;0.77;;;0.77;;
35364;SDS011;21464;48.112;11.530;2023-01-15T15:34:01;2.20;;;1.27;;
35364;SDS011;21464;48.112;11.530;2023-01-15T15:36:28;1.30;;;1.20;;
35364;SDS011;21464;48.112;11.530;2023-01-15T15:39:00;1.60;;;1.50;;
35364;SDS011;21464;48.112;11.530;2023-01-15T15:41:33;1.30;;;1.20;;
35364;SDS011;21464;48.112;11.530;2023-01-15T15:44:41;1.50;;;1.40;;
35364;SDS011;21464;48.112;11.530;2023-01-15T15:47:34;3.30;;;1.50;;
35364;SDS011;21464;48.112;11.530;2023-01-15T15:50:31;1.63;;;1.40;;
35364;SDS011;21464;48.112;11.530;2023-01-15T15:52:59;1.40;;;1.30;;
35364;SDS011;21464;48.112;11.530;2023-01-15T15:55:36;1.30;;;1.30;;
35364;SDS011;21464;48.112;11.530;2023-01-15T15:58:05;0.90;;;0.90;;
35364;SDS011;21464;48.112;11.530;2023-01-15T16:00:38;0.90;;;0.90;;
35364;SDS011;21464;48.112;11.530;2023-01-15T16:03:06;1.30;;;0.97;;
35364;SDS011;21464;48.112;11.530;2023-01-15T16:05:41;0.90;;;0.90;;
35364;SDS011;21464;48.112;11.530;2023-01-15T16:08:15;0.73;;;0.73;;
35364;SDS011;21464;48.112;11.530;2023-01-15T16:10:43;0.93;;;0.90;;
35364;SDS011;21464;48.112;11.530;2023-01-15T16:13:15;1.40;;;1.30;;
35364;SDS011;21464;48.112;11.530;2023-01-15T16:15:47;1.90;;;1.67;;
35364;SDS011;21464;48.112;11.530;2023-01-15T16:18:18;0.90;;;0.90;;
35364;SDS011;21464;48.112;11.530;2023-01-15T16:20:53;1.40;;;1.30;;
35364;SDS011;21464;48.112;11.530;2023-01-15T16:23:22;1.20;;;1.10;;
35364;SDS011;21464;48.112;11.530;2023-01-15T16:28:33;0.80;;;0.80;;
35364;SDS011;21464;48.112;11.530;2023-01-15T16:31:02;1.10;;;1.00;;
35364;SDS011;21464;48.112;11.530;2023-01-15T16:33:28;0.67;;;0.67;;
35364;SDS011;21464;48.112;11.530;2023-01-15T16:35:58;0.77;;;0.77;;
35364;SDS011;21464;48.112;11.530;2023-01-15T16:38:30;0.73;;;0.73;;
35364;SDS011;21464;48.112;11.530;2023-01-15T16:40:58;1.97;;;0.93;;
35364;SDS011;21464;48.112;11.530;2023-01-15T16:43:25;0.70;;;0.70;;
35364;SDS011;21464;48.112;11.530;2023-01-15T16:48:30;0.70;;;0.70;;
35364;SDS011;21464;48.112;11.530;2023-01-15T16:51:22;0.60;;;0.60;;
35364;SDS011;21464;48.112;11.530;2023-01-15T16:53:57;2.00;;;0.90;;
35364;SDS011;21464;48.112;11.530;2023-01-15T16:59:13;1.50;;;0.80;;
35364;SDS011;21464;48.112;11.530;2023-01-15T17:01:41;0.63;;;0.63;;
35364;SDS011;21464;48.112;11.530;2023-01-15T17:09:58;0.90;;;0.90;;
35364;SDS011;21464;48.112;11.530;2023-01-15T17:12:27;0.90;;;0.90;;
35364;SDS011;21464;48.112;11.530;2023-01-15T17:17:48;0.80;;;0.80;;